Watauga, Tennessee
Current Conditions -  °F | °C
As of 5:15 PM on Saturday 25 Oct 2014 (Local Time) from K0A9 Reporting Station
Scattered Clouds Scattered Clouds  
Wind Chill: 64°   Ceiling: Unl
Heat Index: 64°   Visibility: 10mi
Dew Point: 46°   Wind: 5mph
Humidity: 52%   Direction: 300°WNW
Pressure: 30.02"   Gusts: NA
Location:  36.37°N, 82.3°W
Report Text: K0A9 252115Z AUTO 30004KT 10SM SCT050 SCT070 18/08 A3002 RMK
Loading
Personal Weather Stations






























Interactive Weather Map New forecast layout! Learn more

10-Day Weather Forecast

Advertisements
Track Severe Weather on mobile